Time;durP1;ratioP1;P1;durP2;ratioP2;P2;SDS_P1;SDS_P2;PMS_P1;PMS_P2;Temp;Humidity;BMP_temperature;BMP_pressure;BME280_temperature;BME280_humidity;BME280_pressure;Samples;Min_cycle;Max_cycle;Signal;HPM_P1;HPM_P2
2022/01/21 00:01:29;;;;;;;1.63;0.85;;;20.70;49.30;;;;;;5094614;28;20037;-47
2022/01/21 00:03:55;;;;;;;1.10;1.00;;;20.70;49.20;;;;;;5082954;28;20029;-52
2022/01/21 00:06:21;;;;;;;0.82;0.77;;;20.70;49.20;;;;;;5083313;28;20599;-50
2022/01/21 00:08:48;;;;;;;0.70;0.70;;;20.70;49.20;;;;;;5091788;28;20094;-50
2022/01/21 00:11:14;;;;;;;0.70;0.68;;;20.80;49.30;;;;;;5103318;28;20505;-49
2022/01/21 00:13:41;;;;;;;0.88;0.70;;;20.90;49.20;;;;;;5103131;28;20052;-49
2022/01/21 00:16:14;;;;;;;0.90;0.70;;;20.90;49.00;;;;;;5104138;28;20016;-49
2022/01/21 00:18:43;;;;;;;1.35;0.80;;;20.80;49.00;;;;;;5105730;28;20031;-47
2022/01/21 00:32:08;;;;;;;1.02;0.93;;;20.90;48.60;;;;;;5082677;28;20100;-50
2022/01/21 00:34:35;;;;;;;1.00;0.90;;;20.90;48.50;;;;;;5082578;28;20025;-48
2022/01/21 00:37:01;;;;;;;1.00;0.77;;;20.80;48.50;;;;;;5095885;28;20092;-48
2022/01/21 00:39:30;;;;;;;0.98;0.88;;;20.80;48.40;;;;;;5123115;28;20078;-51
2022/01/21 00:44:38;;;;;;;1.15;0.90;;;20.80;48.30;;;;;;5123120;28;20027;-48
2022/01/21 00:47:04;;;;;;;1.15;0.90;;;20.80;48.30;;;;;;5123125;28;20034;-49
2022/01/21 00:49:30;;;;;;;1.10;0.88;;;20.90;48.30;;;;;;5119015;28;20405;-48
2022/01/21 00:51:56;;;;;;;0.70;0.68;;;20.80;48.10;;;;;;5102821;28;20080;-48
2022/01/21 00:54:23;;;;;;;1.00;0.90;;;20.80;48.20;;;;;;5102700;28;20058;-46
2022/01/21 00:56:49;;;;;;;0.90;0.88;;;20.80;48.20;;;;;;5102709;28;20217;-49
2022/01/21 00:59:15;;;;;;;1.25;0.80;;;20.80;48.00;;;;;;5102310;28;20028;-51
2022/01/21 01:01:41;;;;;;;0.70;0.70;;;20.80;48.20;;;;;;5101528;28;20095;-47
2022/01/21 01:04:08;;;;;;;0.97;0.70;;;20.80;48.20;;;;;;5102468;28;20043;-47
2022/01/21 01:06:34;;;;;;;2.03;0.98;;;20.90;48.10;;;;;;5102811;28;20770;-47
2022/01/21 01:09:00;;;;;;;1.05;0.90;;;20.80;48.10;;;;;;5091767;28;20043;-46
2022/01/21 01:11:45;;;;;;;1.23;1.00;;;20.80;48.00;;;;;;5082143;28;20036;-47
2022/01/21 01:22:38;;;;;;;0.95;0.85;;;20.90;48.20;;;;;;5102359;28;20112;-47
2022/01/21 01:27:49;;;;;;;0.90;0.80;;;20.90;48.00;;;;;;5102296;28;20028;-46
2022/01/21 01:30:17;;;;;;;0.98;0.90;;;20.80;48.00;;;;;;5100820;28;20024;-47
2022/01/21 01:32:44;;;;;;;1.00;0.88;;;20.80;47.90;;;;;;5086061;28;20710;-46
2022/01/21 01:35:12;;;;;;;1.15;0.75;;;20.80;47.90;;;;;;5086160;28;20040;-47
2022/01/21 01:38:01;;;;;;;1.23;1.08;;;20.80;48.00;;;;;;5086077;28;20024;-48
2022/01/21 01:40:33;;;;;;;1.30;1.05;;;20.90;48.00;;;;;;5112816;28;20035;-50
2022/01/21 01:49:24;;;;;;;1.02;0.93;;;20.90;47.90;;;;;;5109267;28;20038;-48
2022/01/21 01:51:28;;;;;;;1.42;1.00;;;20.80;47.70;;;;;;5106331;28;20031;-47
2022/01/21 01:54:20;;;;;;;1.00;0.90;;;20.80;47.90;;;;;;5105411;28;20351;-47
2022/01/21 01:56:51;;;;;;;1.25;1.15;;;20.90;47.90;;;;;;5085681;28;20080;-47
2022/01/21 01:59:17;;;;;;;0.93;0.82;;;20.90;47.80;;;;;;5084892;28;20048;-47
2022/01/21 02:01:49;;;;;;;1.15;0.95;;;20.80;47.80;;;;;;5100997;28;20035;-47
2022/01/21 02:04:17;;;;;;;1.50;1.10;;;20.80;47.80;;;;;;5105635;28;20043;-47
2022/01/21 02:06:44;;;;;;;1.50;1.30;;;20.80;47.60;;;;;;5121077;28;20098;-48
2022/01/21 02:09:10;;;;;;;1.98;1.00;;;20.80;47.70;;;;;;5093220;28;20032;-46
2022/01/21 02:11:37;;;;;;;1.08;0.98;;;20.80;47.80;;;;;;5100801;28;20043;-48
2022/01/21 02:14:08;;;;;;;1.35;1.25;;;20.80;47.80;;;;;;5085346;28;20043;-48
2022/01/21 02:16:42;;;;;;;1.40;1.10;;;20.80;47.70;;;;;;5085102;28;20040;-48
2022/01/21 02:21:56;;;;;;;1.20;1.05;;;20.80;47.60;;;;;;5084895;28;20078;-46
2022/01/21 02:24:29;;;;;;;1.20;1.10;;;20.80;47.50;;;;;;5108787;28;20040;-47
2022/01/21 02:26:57;;;;;;;1.52;1.05;;;20.80;47.60;;;;;;5125749;28;20071;-47
2022/01/21 02:29:33;;;;;;;1.63;1.10;;;20.80;47.70;;;;;;5125913;28;20094;-46
2022/01/21 02:32:02;;;;;;;1.20;1.10;;;20.80;47.60;;;;;;5110120;28;20208;-47
2022/01/21 02:34:28;;;;;;;1.17;0.95;;;20.80;47.50;;;;;;5125269;28;20036;-47
2022/01/21 02:36:54;;;;;;;1.13;1.03;;;20.80;47.60;;;;;;5125175;28;20046;-47
2022/01/21 02:39:20;;;;;;;1.25;1.15;;;20.80;47.40;;;;;;5107085;28;20313;-48
2022/01/21 02:41:47;;;;;;;1.90;1.23;;;20.80;47.40;;;;;;5124365;28;20058;-48
2022/01/21 02:44:16;;;;;;;1.20;0.90;;;20.80;47.50;;;;;;5125496;28;20027;-46
2022/01/21 02:46:43;;;;;;;1.42;1.00;;;20.80;47.50;;;;;;5125339;28;20044;-48
2022/01/21 02:49:10;;;;;;;1.03;0.80;;;20.80;47.40;;;;;;5124622;28;20442;-49
2022/01/21 02:51:36;;;;;;;1.50;1.20;;;20.80;47.40;;;;;;5104677;28;20024;-47
2022/01/21 02:56:29;;;;;;;1.20;1.10;;;20.80;47.30;;;;;;5104662;28;20405;-49
2022/01/21 02:58:55;;;;;;;1.40;1.10;;;20.80;47.30;;;;;;5104624;28;20736;-47
2022/01/21 03:01:21;;;;;;;1.42;1.00;;;20.80;47.40;;;;;;5103226;28;20035;-48
2022/01/21 03:03:48;;;;;;;1.05;0.95;;;20.80;47.40;;;;;;5104617;28;20036;-48
2022/01/21 03:06:15;;;;;;;1.00;0.87;;;20.80;47.30;;;;;;5104754;28;20046;-47
2022/01/21 03:08:45;;;;;;;0.98;0.90;;;20.80;47.30;;;;;;5096769;28;20037;-48
2022/01/21 03:11:12;;;;;;;1.17;1.00;;;20.80;47.30;;;;;;5083872;28;20028;-47
2022/01/21 03:13:39;;;;;;;;;;;20.70;47.20;;;;;;5084469;28;20052;-48
2022/01/21 03:16:05;;;;;;;1.10;0.98;;;20.70;47.20;;;;;;5084097;28;19912;-47
2022/01/21 03:18:31;;;;;;;1.00;0.82;;;20.70;47.30;;;;;;5083988;28;20035;-46
2022/01/21 03:20:57;;;;;;;1.08;0.98;;;20.60;47.20;;;;;;5099949;28;20046;-46
2022/01/21 03:23:26;;;;;;;1.42;1.20;;;20.60;47.20;;;;;;5104209;28;20080;-46
2022/01/21 03:25:52;;;;;;;1.15;1.05;;;20.60;47.10;;;;;;5104489;28;20025;-48
2022/01/21 03:28:18;;;;;;;1.85;1.23;;;20.50;47.00;;;;;;5104204;28;20052;-47
2022/01/21 03:30:44;;;;;;;1.30;1.20;;;20.50;47.10;;;;;;5102924;28;20023;-49
2022/01/21 03:33:11;;;;;;;1.65;1.27;;;20.40;47.10;;;;;;5103753;28;20058;-46
2022/01/21 03:35:37;;;;;;;1.58;1.30;;;20.40;47.10;;;;;;5085762;28;20027;-47
2022/01/21 03:38:03;;;;;;;1.90;1.30;;;20.40;47.10;;;;;;5101480;28;20100;-47
2022/01/21 03:40:29;;;;;;;1.42;1.33;;;20.30;47.00;;;;;;5083399;28;20024;-48
2022/01/21 03:42:55;;;;;;;1.67;1.40;;;20.30;47.00;;;;;;5083437;28;20072;-45
2022/01/21 03:45:21;;;;;;;2.00;1.48;;;20.20;47.00;;;;;;5083593;28;20111;-48
2022/01/21 03:47:47;;;;;;;1.50;1.40;;;20.20;47.00;;;;;;5083424;28;20029;-48
2022/01/21 03:50:32;;;;;;;1.48;1.30;;;20.20;46.90;;;;;;5099657;28;20028;-47
2022/01/21 03:53:01;;;;;;;2.22;1.30;;;20.10;46.90;;;;;;5102536;28;20039;-46
2022/01/21 03:55:28;;;;;;;1.45;1.33;;;20.10;47.00;;;;;;5105031;28;20500;-46
2022/01/21 03:57:54;;;;;;;2.17;1.50;;;20.10;47.00;;;;;;5103720;28;20032;-48
2022/01/21 04:00:28;;;;;;;2.40;1.40;;;20.00;46.90;;;;;;5112133;28;20028;-50
2022/01/21 04:02:54;;;;;;;1.40;1.30;;;20.00;47.10;;;;;;5103322;28;20163;-49
2022/01/21 04:05:20;;;;;;;3.45;1.52;;;19.90;47.00;;;;;;5103669;28;20039;-47
2022/01/21 04:07:46;;;;;;;1.85;1.58;;;19.90;47.00;;;;;;5103223;28;20028;-46
2022/01/21 04:10:12;;;;;;;2.30;1.38;;;19.90;47.10;;;;;;5083051;28;20517;-47
2022/01/21 04:12:38;;;;;;;1.50;1.30;;;19.80;47.00;;;;;;5082731;28;20135;-45
2022/01/21 04:15:05;;;;;;;1.70;1.52;;;19.80;47.10;;;;;;5097044;28;20032;-47
2022/01/21 04:17:31;;;;;;;2.42;1.67;;;19.70;47.10;;;;;;5103223;28;20057;-46
2022/01/21 04:19:57;;;;;;;3.45;1.60;;;19.70;47.10;;;;;;5103007;28;20036;-47
2022/01/21 04:22:23;;;;;;;1.55;1.40;;;19.60;47.10;;;;;;5102776;28;20042;-46
2022/01/21 04:24:50;;;;;;;2.83;1.70;;;19.60;47.20;;;;;;5104627;28;20054;-46
2022/01/21 04:27:17;;;;;;;2.27;1.63;;;19.60;47.20;;;;;;5123530;28;20027;-48
2022/01/21 04:29:43;;;;;;;1.60;1.50;;;19.60;47.20;;;;;;5123359;28;20038;-46
2022/01/21 04:32:10;;;;;;;2.00;1.60;;;19.50;47.20;;;;;;5082955;28;20032;-46
2022/01/21 04:34:36;;;;;;;2.70;1.50;;;19.40;47.20;;;;;;5082344;28;20029;-47
2022/01/21 04:37:06;;;;;;;2.55;1.73;;;19.40;47.30;;;;;;5082673;28;20025;-47
2022/01/21 04:39:37;;;;;;;2.50;1.88;;;19.40;47.20;;;;;;5097590;28;20028;-46
2022/01/21 04:47:31;;;;;;;1.98;1.58;;;19.20;47.30;;;;;;5102712;28;20038;-46
2022/01/21 04:49:58;;;;;;;2.50;1.70;;;19.20;47.50;;;;;;5102559;28;20016;-46
2022/01/21 04:52:24;;;;;;;3.75;1.35;;;19.10;47.40;;;;;;5102650;28;20028;-46
2022/01/21 04:54:50;;;;;;;1.58;1.48;;;19.10;47.40;;;;;;5102580;28;20032;-47
2022/01/21 04:57:16;;;;;;;1.80;1.50;;;19.10;47.50;;;;;;5102803;28;20122;-47
2022/01/21 04:59:42;;;;;;;2.28;1.40;;;19.00;47.50;;;;;;5102440;28;20028;-47
2022/01/21 05:02:08;;;;;;;1.75;1.60;;;19.00;47.60;;;;;;5101866;28;20398;-47
2022/01/21 05:04:35;;;;;;;2.08;1.83;;;18.90;47.50;;;;;;5101949;28;20036;-46
2022/01/21 05:07:04;;;;;;;1.88;1.25;;;18.90;47.50;;;;;;5102427;28;20024;-46
2022/01/21 05:09:32;;;;;;;2.17;1.58;;;18.90;47.50;;;;;;5087829;28;20103;-47
2022/01/21 05:11:59;;;;;;;1.92;1.70;;;18.80;47.50;;;;;;5082285;28;20049;-46
2022/01/21 05:14:41;;;;;;;;;;;18.80;47.60;;;;;;5082531;28;20501;-45
2022/01/21 05:17:09;;;;;;;2.10;1.60;;;18.80;47.70;;;;;;5081922;28;20304;-48
2022/01/21 05:19:36;;;;;;;3.15;1.85;;;18.80;47.70;;;;;;5068947;28;20024;-47
2022/01/21 05:22:02;;;;;;;1.93;1.70;;;18.70;47.80;;;;;;5102588;28;20039;-45
2022/01/21 05:24:28;;;;;;;2.65;1.80;;;18.70;47.80;;;;;;5083900;28;20035;-47
2022/01/21 05:26:58;;;;;;;1.85;1.73;;;18.60;47.70;;;;;;5102470;28;20043;-48
2022/01/21 05:29:25;;;;;;;2.28;1.70;;;18.60;47.70;;;;;;5102168;28;20481;-46
2022/01/21 05:31:51;;;;;;;2.33;1.58;;;18.60;47.90;;;;;;5084551;28;20044;-49
2022/01/21 05:34:18;;;;;;;2.00;1.60;;;18.50;47.80;;;;;;5063469;28;20505;-47
2022/01/21 05:36:44;;;;;;;2.88;1.90;;;18.40;47.80;;;;;;5081956;28;20028;-45
2022/01/21 05:39:11;;;;;;;2.45;1.70;;;18.40;47.90;;;;;;5093910;28;20028;-46
2022/01/21 05:41:37;;;;;;;2.47;1.83;;;18.40;47.90;;;;;;5102362;28;20020;-45
2022/01/21 05:44:10;;;;;;;3.22;1.63;;;18.30;48.00;;;;;;5102049;28;20048;-46
2022/01/21 05:49:08;;;;;;;2.13;1.67;;;18.20;48.00;;;;;;5101446;28;20047;-47
2022/01/21 05:51:34;;;;;;;2.20;1.88;;;18.20;48.10;;;;;;5101820;28;20036;-47
2022/01/21 05:54:00;;;;;;;2.78;1.90;;;18.10;48.20;;;;;;5105192;28;20028;-44
2022/01/21 05:56:27;;;;;;;3.45;2.17;;;18.10;48.20;;;;;;5122411;28;20024;-45
2022/01/21 05:58:53;;;;;;;3.05;1.73;;;18.00;48.30;;;;;;5120267;28;20039;-46
2022/01/21 06:01:19;;;;;;;2.13;1.80;;;17.90;48.30;;;;;;5095396;28;20028;-46
2022/01/21 06:03:45;;;;;;;1.98;1.50;;;17.90;48.40;;;;;;5063610;28;20043;-45
2022/01/21 06:06:11;;;;;;;2.08;1.77;;;17.90;48.40;;;;;;5093868;28;20536;-48
2022/01/21 06:08:40;;;;;;;2.72;1.80;;;17.90;48.40;;;;;;5096807;28;20030;-45
2022/01/21 06:11:06;;;;;;;2.13;1.48;;;17.80;48.50;;;;;;5101935;28;20028;-46
2022/01/21 06:13:34;;;;;;;2.47;1.60;;;17.80;48.50;;;;;;5101631;28;20048;-46
2022/01/21 06:16:00;;;;;;;2.10;1.88;;;17.70;48.60;;;;;;5101810;28;20028;-45
2022/01/21 06:18:26;;;;;;;3.42;1.60;;;17.70;48.60;;;;;;5114353;28;20024;-45
2022/01/21 06:20:53;;;;;;;2.95;1.88;;;17.70;48.60;;;;;;5110294;28;20032;-47
2022/01/21 06:23:19;;;;;;;1.90;1.70;;;17.60;48.70;;;;;;5105692;28;20445;-46
2022/01/21 06:25:45;;;;;;;1.90;1.42;;;17.60;48.70;;;;;;5087167;28;20042;-47
2022/01/21 06:28:11;;;;;;;1.92;1.60;;;17.60;48.70;;;;;;5105248;28;20023;-46
2022/01/21 06:30:38;;;;;;;2.72;1.98;;;17.50;48.70;;;;;;5098504;28;20025;-47
2022/01/21 06:33:04;;;;;;;2.10;1.67;;;17.40;48.70;;;;;;5085046;28;20044;-45
2022/01/21 06:35:30;;;;;;;1.75;1.58;;;17.50;48.80;;;;;;5101508;28;20357;-46
2022/01/21 06:37:56;;;;;;;2.35;1.73;;;17.50;48.80;;;;;;5123891;28;20024;-45
2022/01/21 06:40:22;;;;;;;1.80;1.50;;;17.40;48.80;;;;;;5105323;28;20050;-45
2022/01/21 06:42:50;;;;;;;2.17;1.65;;;17.40;48.90;;;;;;5105130;28;20051;-46
2022/01/21 06:45:17;;;;;;;1.75;1.52;;;17.30;49.00;;;;;;5103657;28;20051;-45
2022/01/21 06:47:43;;;;;;;2.30;1.70;;;17.20;49.00;;;;;;5105011;28;20088;-46
2022/01/21 06:50:09;;;;;;;1.65;1.55;;;17.20;49.10;;;;;;5103570;28;20055;-47
2022/01/21 06:52:36;;;;;;;1.65;1.55;;;17.20;49.10;;;;;;5104793;28;20028;-46
2022/01/21 06:55:02;;;;;;;2.08;1.70;;;17.10;49.10;;;;;;5104628;28;20455;-47
2022/01/21 06:57:28;;;;;;;2.67;1.75;;;17.10;49.10;;;;;;5104794;28;20028;-46
2022/01/21 06:59:55;;;;;;;2.42;2.00;;;17.10;49.20;;;;;;5103994;28;20121;-45
2022/01/21 07:02:21;;;;;;;1.80;1.42;;;17.00;49.20;;;;;;5085021;28;20020;-45
2022/01/21 07:04:48;;;;;;;1.63;1.50;;;17.00;49.30;;;;;;5084250;28;20035;-47
2022/01/21 07:07:14;;;;;;;2.15;1.80;;;16.90;49.30;;;;;;5084249;28;20089;-46
2022/01/21 07:09:41;;;;;;;2.13;1.60;;;16.90;49.40;;;;;;5093103;28;20031;-47
2022/01/21 07:12:07;;;;;;;1.85;1.63;;;16.90;49.40;;;;;;5116454;28;20061;-45
2022/01/21 07:14:33;;;;;;;2.40;1.58;;;16.90;49.40;;;;;;5124864;28;20027;-45
2022/01/21 07:16:59;;;;;;;1.63;1.48;;;16.80;49.50;;;;;;5108089;28;20024;-46
2022/01/21 07:19:25;;;;;;;1.60;1.50;;;16.80;49.50;;;;;;5104306;28;20075;-45
2022/01/21 07:21:52;;;;;;;2.45;1.45;;;16.80;49.50;;;;;;5104493;28;20074;-45
2022/01/21 07:24:18;;;;;;;2.08;1.70;;;16.70;49.60;;;;;;5104394;28;20473;-49
2022/01/21 07:26:45;;;;;;;1.77;1.58;;;16.70;49.60;;;;;;5103676;28;20471;-45
2022/01/21 07:29:11;;;;;;;1.95;1.52;;;16.70;49.60;;;;;;5120883;28;20061;-45
2022/01/21 07:31:37;;;;;;;1.70;1.55;;;16.60;49.60;;;;;;5093295;28;20036;-48
2022/01/21 07:34:06;;;;;;;2.22;1.60;;;16.60;49.60;;;;;;5083826;28;20039;-45
2022/01/21 07:36:34;;;;;;;1.85;1.50;;;16.60;49.70;;;;;;5098633;28;20428;-46
2022/01/21 07:39:01;;;;;;;1.88;1.58;;;16.50;49.70;;;;;;5083802;28;20035;-45
2022/01/21 07:41:27;;;;;;;2.10;1.63;;;16.50;49.80;;;;;;5082582;28;20393;-47
2022/01/21 07:43:53;;;;;;;2.05;1.75;;;16.50;49.80;;;;;;5083582;28;20024;-45
2022/01/21 07:46:20;;;;;;;1.80;1.50;;;16.50;49.80;;;;;;5081980;28;20025;-46
2022/01/21 07:48:46;;;;;;;2.05;1.60;;;16.40;50.40;;;;;;5083336;28;20539;-46
2022/01/21 07:51:12;;;;;;;1.70;1.60;;;16.40;49.90;;;;;;5101443;28;20115;-45
2022/01/21 07:53:38;;;;;;;2.55;1.80;;;16.40;49.80;;;;;;5103921;28;20043;-46
2022/01/21 07:56:04;;;;;;;1.88;1.67;;;16.40;49.90;;;;;;5113510;28;20028;-46
2022/01/21 07:58:31;;;;;;;2.13;1.65;;;16.40;49.90;;;;;;5105504;28;20790;-49
2022/01/21 08:00:57;;;;;;;1.70;1.55;;;16.30;49.80;;;;;;5106077;28;20029;-47
2022/01/21 08:03:24;;;;;;;1.80;1.70;;;16.30;49.80;;;;;;5123676;28;20034;-47
2022/01/21 08:05:51;;;;;;;1.58;1.48;;;16.30;49.90;;;;;;5105856;28;20032;-47
2022/01/21 08:08:18;;;;;;;1.50;1.40;;;16.30;49.90;;;;;;5103226;28;20567;-47
2022/01/21 08:10:44;;;;;;;1.92;1.50;;;16.20;49.90;;;;;;5103439;28;20020;-45
2022/01/21 08:13:10;;;;;;;1.67;1.55;;;16.20;49.90;;;;;;5103259;28;20054;-45
2022/01/21 08:15:36;;;;;;;2.08;1.50;;;16.20;49.90;;;;;;5103461;28;20081;-46
2022/01/21 08:18:02;;;;;;;1.58;1.42;;;16.10;50.00;;;;;;5105060;28;20119;-46
2022/01/21 08:20:29;;;;;;;2.10;1.35;;;16.10;49.90;;;;;;5103002;28;20028;-45
2022/01/21 08:22:55;;;;;;;1.70;1.58;;;16.10;49.90;;;;;;5103343;28;20110;-45
2022/01/21 08:25:21;;;;;;;1.52;1.30;;;16.10;49.90;;;;;;5103195;28;20043;-46
2022/01/21 08:27:47;;;;;;;1.65;1.50;;;16.20;50.00;;;;;;5103118;28;20119;-45
2022/01/21 08:30:14;;;;;;;1.80;1.42;;;16.20;50.00;;;;;;5102501;28;20594;-45
2022/01/21 08:32:40;;;;;;;1.67;1.30;;;16.20;50.10;;;;;;5101765;28;20040;-46
2022/01/21 08:35:07;;;;;;;1.90;1.38;;;16.20;50.10;;;;;;5117065;28;20019;-45
2022/01/21 08:37:33;;;;;;;1.23;1.13;;;16.10;50.10;;;;;;5123655;28;20038;-45
2022/01/21 08:39:59;;;;;;;2.22;1.45;;;16.10;50.10;;;;;;5103718;28;20039;-46
2022/01/21 08:42:26;;;;;;;1.60;1.30;;;16.10;50.20;;;;;;5102964;28;20088;-45
2022/01/21 08:44:52;;;;;;;2.05;1.23;;;16.10;50.10;;;;;;5103064;28;20032;-46
2022/01/21 08:47:20;;;;;;;1.42;1.33;;;16.10;50.20;;;;;;5102596;28;20028;-45
2022/01/21 08:49:48;;;;;;;1.70;1.13;;;16.10;50.20;;;;;;5101312;28;20027;-46
2022/01/21 08:52:25;;;;;;;1.25;1.15;;;16.10;50.20;;;;;;5102722;28;20027;-46
2022/01/21 08:54:51;;;;;;;1.33;1.20;;;16.20;50.30;;;;;;5102706;28;20028;-46
2022/01/21 08:57:18;;;;;;;2.42;1.00;;;16.10;50.30;;;;;;5102581;28;20564;-48
2022/01/21 08:59:44;;;;;;;1.05;0.90;;;16.00;50.30;;;;;;5102157;28;20042;-44
2022/01/21 09:02:11;;;;;;;1.63;1.23;;;16.00;50.30;;;;;;5102023;28;20055;-45
2022/01/21 09:04:37;;;;;;;0.98;0.93;;;16.00;50.40;;;;;;5102470;28;20739;-47
2022/01/21 09:07:03;;;;;;;1.10;1.00;;;16.00;50.40;;;;;;5102746;28;20030;-46
2022/01/21 09:09:29;;;;;;;1.30;1.20;;;16.00;50.50;;;;;;5102235;28;20119;-46
2022/01/21 09:11:59;;;;;;;1.30;1.02;;;16.10;50.50;;;;;;5102530;28;20028;-45
2022/01/21 09:14:27;;;;;;;1.45;1.10;;;16.10;50.50;;;;;;5102439;28;20060;-45
2022/01/21 09:16:54;;;;;;;1.02;0.90;;;16.10;50.50;;;;;;5102394;28;20080;-49
2022/01/21 09:19:20;;;;;;;1.27;1.00;;;16.10;51.00;;;;;;5101062;28;20032;-45
2022/01/21 09:21:51;;;;;;;1.23;1.00;;;16.00;50.50;;;;;;5102250;28;20115;-46
2022/01/21 09:24:17;;;;;;;1.17;1.00;;;16.00;50.40;;;;;;5102456;28;20024;-45
2022/01/21 09:26:44;;;;;;;1.30;1.20;;;16.00;50.50;;;;;;5102411;28;20023;-45
2022/01/21 09:29:10;;;;;;;1.27;1.00;;;16.00;50.60;;;;;;5102415;28;20020;-46
2022/01/21 09:31:36;;;;;;;1.25;0.98;;;16.10;50.70;;;;;;5087355;28;20106;-44
2022/01/21 09:34:03;;;;;;;1.88;1.20;;;16.10;50.60;;;;;;5081826;28;20118;-46
2022/01/21 09:36:29;;;;;;;;;;;16.10;50.80;;;;;;5082564;28;20025;-47
2022/01/21 09:38:55;;;;;;;1.42;1.08;;;16.10;51.10;;;;;;5082191;28;20444;-45
2022/01/21 09:41:21;;;;;;;1.17;0.85;;;16.20;51.20;;;;;;5081607;28;20067;-47
2022/01/21 09:43:48;;;;;;;1.10;0.80;;;16.40;51.50;;;;;;5081795;28;20490;-46
2022/01/21 09:46:15;;;;;;;0.70;0.60;;;16.50;51.50;;;;;;5097403;28;20450;-46
2022/01/21 09:48:54;;;;;;;1.00;0.90;;;16.60;51.70;;;;;;5081870;28;20036;-45
2022/01/21 09:51:20;;;;;;;0.70;0.70;;;16.70;51.90;;;;;;5103439;28;20020;-46
2022/01/21 09:53:46;;;;;;;1.20;0.80;;;16.80;52.00;;;;;;5106281;28;20451;-48
2022/01/21 09:56:14;;;;;;;1.00;0.68;;;16.90;52.10;;;;;;5119745;28;20027;-48
2022/01/21 09:58:44;;;;;;;0.95;0.70;;;17.00;52.20;;;;;;5126535;28;20493;-46
2022/01/21 10:01:10;;;;;;;0.82;0.80;;;17.10;52.30;;;;;;5084855;28;20112;-45
2022/01/21 10:03:36;;;;;;;0.68;0.65;;;17.30;52.40;;;;;;5085401;28;20068;-46
2022/01/21 10:06:03;;;;;;;1.27;0.80;;;17.40;52.30;;;;;;5104711;28;20027;-46
2022/01/21 10:08:29;;;;;;;0.73;0.73;;;17.50;52.40;;;;;;5087767;28;20100;-45
2022/01/21 10:10:55;;;;;;;0.90;0.68;;;17.60;52.40;;;;;;5104076;28;20036;-45
2022/01/21 10:13:21;;;;;;;0.80;0.77;;;17.70;52.30;;;;;;5126225;28;20047;-45
2022/01/21 10:15:48;;;;;;;0.60;0.60;;;17.90;52.20;;;;;;5126375;28;20400;-50
2022/01/21 10:18:19;;;;;;;0.80;0.63;;;17.90;52.30;;;;;;5126143;28;20045;-46
2022/01/21 10:21:00;;;;;;;1.05;0.80;;;18.10;52.10;;;;;;5111115;28;20020;-46
2022/01/21 10:23:27;;;;;;;0.63;0.63;;;18.20;52.20;;;;;;5087986;28;20035;-47
2022/01/21 10:26:04;;;;;;;0.60;0.60;;;18.30;52.10;;;;;;5108232;28;20074;-47
2022/01/21 10:28:31;;;;;;;1.00;0.75;;;18.50;51.90;;;;;;5105632;28;20118;-47
2022/01/21 10:31:13;;;;;;;1.00;0.90;;;18.50;51.90;;;;;;5110553;28;20024;-47
2022/01/21 10:33:47;;;;;;;0.70;0.60;;;18.70;51.70;;;;;;5105482;28;20057;-47
2022/01/21 10:36:26;;;;;;;0.88;0.60;;;18.80;51.80;;;;;;5105364;28;20028;-46
2022/01/21 10:39:05;;;;;;;0.60;0.60;;;18.90;51.60;;;;;;5095656;28;20044;-50
2022/01/21 10:41:32;;;;;;;1.13;0.70;;;19.00;51.50;;;;;;5085038;28;20024;-51
2022/01/21 10:44:07;;;;;;;0.73;0.60;;;19.20;51.40;;;;;;5067178;28;20036;-50
2022/01/21 10:46:33;;;;;;;0.50;0.40;;;19.30;51.30;;;;;;5085056;28;20029;-51
2022/01/21 10:49:10;;;;;;;0.60;0.60;;;19.40;51.10;;;;;;5084956;28;20025;-52
2022/01/21 10:51:38;;;;;;;0.70;0.60;;;19.50;50.90;;;;;;5104890;28;20028;-50
2022/01/21 10:54:16;;;;;;;0.60;0.57;;;19.60;50.90;;;;;;5086826;28;20032;-47
2022/01/21 10:57:01;;;;;;;;;;;19.70;50.90;;;;;;5105239;28;20050;-47
2022/01/21 11:00:03;;;;;;;0.50;0.50;;;19.90;50.70;;;;;;5105031;28;19911;-51
2022/01/21 11:02:42;;;;;;;0.50;0.50;;;20.00;50.60;;;;;;5083013;28;20045;-52
2022/01/21 11:05:16;;;;;;;0.77;0.70;;;20.10;50.30;;;;;;5108404;28;20031;-48
2022/01/21 11:08:12;;;;;;;1.02;0.57;;;20.20;50.20;;;;;;5125506;28;20042;-51
2022/01/21 11:10:42;;;;;;;0.73;0.73;;;20.30;50.10;;;;;;5084442;28;20040;-47
2022/01/21 11:13:20;;;;;;;0.73;0.65;;;20.50;50.10;;;;;;5084168;28;20127;-48
2022/01/21 11:15:53;;;;;;;0.52;0.50;;;20.60;49.70;;;;;;5084175;28;20044;-46
2022/01/21 11:18:20;;;;;;;0.98;0.82;;;20.80;49.40;;;;;;5084729;28;20032;-45
2022/01/21 11:20:48;;;;;;;;;;;20.80;48.80;;;;;;5099028;28;20052;-45
2022/01/21 11:23:15;;;;;;;0.50;0.40;;;20.70;48.80;;;;;;5104462;28;19916;-47
2022/01/21 11:25:42;;;;;;;0.88;0.63;;;20.70;48.70;;;;;;5104607;28;20028;-47
2022/01/21 11:28:11;;;;;;;0.50;0.50;;;20.70;48.70;;;;;;5104618;28;20032;-47
2022/01/21 11:30:37;;;;;;;0.60;0.60;;;20.60;48.50;;;;;;5103714;28;20361;-46
2022/01/21 11:33:03;;;;;;;1.00;0.80;;;20.60;48.50;;;;;;5104074;28;20035;-45
2022/01/21 11:35:30;;;;;;;0.70;0.70;;;20.70;48.40;;;;;;5104079;28;20028;-47
2022/01/21 11:37:57;;;;;;;0.73;0.60;;;20.60;48.20;;;;;;5102483;28;20045;-46
2022/01/21 11:40:23;;;;;;;0.70;0.70;;;20.60;48.10;;;;;;5099648;28;20052;-46
2022/01/21 11:42:50;;;;;;;1.33;0.90;;;20.60;48.00;;;;;;5083960;28;20032;-45
2022/01/21 11:50:44;;;;;;;0.75;0.73;;;20.70;47.80;;;;;;5110780;28;20050;-45
2022/01/21 11:53:10;;;;;;;1.48;0.70;;;20.70;47.80;;;;;;5103590;28;20044;-46
2022/01/21 11:55:47;;;;;;;1.00;0.60;;;20.70;47.60;;;;;;5104055;28;20020;-45
2022/01/21 11:58:18;;;;;;;1.35;0.70;;;20.70;47.60;;;;;;5104573;28;20042;-47
2022/01/21 12:00:47;;;;;;;0.98;0.82;;;20.60;47.50;;;;;;5109971;28;20044;-45
2022/01/21 12:03:14;;;;;;;0.82;0.70;;;20.60;47.50;;;;;;5083529;28;20063;-45
2022/01/21 12:05:40;;;;;;;0.93;0.70;;;20.60;47.50;;;;;;5083462;28;20028;-45
2022/01/21 12:08:06;;;;;;;1.23;1.10;;;20.70;47.60;;;;;;5086334;28;20027;-45
2022/01/21 12:10:36;;;;;;;1.33;0.77;;;20.70;47.40;;;;;;5103275;28;20501;-45
2022/01/21 12:13:06;;;;;;;0.93;0.70;;;20.70;47.40;;;;;;5102847;28;20173;-45
2022/01/21 12:18:39;;;;;;;0.85;0.60;;;20.70;47.30;;;;;;5111784;28;20028;-45
2022/01/21 12:21:00;;;;;;;0.80;0.80;;;20.60;47.30;;;;;;5107068;28;20036;-46
2022/01/21 12:23:28;;;;;;;0.80;0.80;;;20.60;47.30;;;;;;5102928;28;20023;-46
2022/01/21 12:26:09;;;;;;;;;;;20.70;47.40;;;;;;5104036;28;20648;-45
2022/01/21 12:28:39;;;;;;;0.82;0.63;;;20.70;47.40;;;;;;5103526;28;19908;-45
2022/01/21 12:31:05;;;;;;;0.82;0.63;;;20.80;47.30;;;;;;5100533;28;20031;-47
2022/01/21 12:36:29;;;;;;;0.93;0.73;;;20.70;47.30;;;;;;5082972;28;20486;-45
2022/01/21 12:41:24;;;;;;;2.10;0.90;;;20.70;47.20;;;;;;5101781;28;20020;-45
2022/01/21 12:43:58;;;;;;;0.65;0.65;;;20.70;47.30;;;;;;5102835;28;20024;-45
2022/01/21 12:46:24;;;;;;;0.90;0.70;;;20.70;47.30;;;;;;5103083;28;20051;-46
2022/01/21 12:48:53;;;;;;;1.20;0.82;;;20.80;47.30;;;;;;5103385;28;20051;-45
2022/01/21 12:51:33;;;;;;;1.10;0.60;;;20.80;47.20;;;;;;5102853;28;20136;-46
2022/01/21 12:56:58;;;;;;;1.13;0.85;;;20.70;47.10;;;;;;5103053;28;20035;-45
2022/01/21 12:59:28;;;;;;;1.00;0.80;;;20.70;47.10;;;;;;5102531;28;20111;-45
2022/01/21 13:01:56;;;;;;;1.17;0.85;;;20.70;47.20;;;;;;5086211;28;20071;-47
2022/01/21 13:04:45;;;;;;;1.35;0.75;;;20.70;47.20;;;;;;5082403;28;20691;-46
2022/01/21 13:07:20;;;;;;;0.95;0.80;;;20.70;47.20;;;;;;5082301;28;20031;-47
2022/01/21 13:10:21;;;;;;;0.90;0.70;;;20.70;47.10;;;;;;5098007;28;20043;-46
2022/01/21 13:15:55;;;;;;;1.50;0.90;;;20.60;47.00;;;;;;5082640;28;20021;-46
2022/01/21 13:18:28;;;;;;;1.10;0.80;;;20.60;47.00;;;;;;5082530;28;20056;-47
2022/01/21 13:20:59;;;;;;;1.30;0.80;;;20.60;47.00;;;;;;5097923;28;20862;-46
2022/01/21 13:23:33;;;;;;;1.30;0.90;;;20.50;47.00;;;;;;5102522;28;20386;-45
2022/01/21 13:26:19;;;;;;;1.38;0.80;;;20.50;47.00;;;;;;5104387;28;20078;-45
2022/01/21 13:29:05;;;;;;;2.70;0.98;;;20.40;46.90;;;;;;5107070;28;20081;-45
2022/01/21 13:31:51;;;;;;;1.45;1.00;;;20.40;46.90;;;;;;5093945;28;20044;-46
2022/01/21 13:34:21;;;;;;;1.38;0.80;;;20.30;46.90;;;;;;5085918;28;20081;-47
2022/01/21 13:36:52;;;;;;;1.17;0.98;;;20.30;46.90;;;;;;5086401;28;20024;-46
2022/01/21 13:39:35;;;;;;;1.45;0.98;;;20.30;46.80;;;;;;5096724;28;20070;-45
2022/01/21 13:42:07;;;;;;;1.30;1.17;;;20.20;46.70;;;;;;5106739;28;20040;-45
2022/01/21 13:44:36;;;;;;;0.93;0.82;;;20.10;46.80;;;;;;5106180;28;20028;-45
2022/01/21 13:47:04;;;;;;;1.85;1.02;;;20.10;46.80;;;;;;5106365;28;20092;-46
2022/01/21 13:49:31;;;;;;;1.10;0.93;;;20.00;46.70;;;;;;5106478;28;20114;-44
2022/01/21 13:52:02;;;;;;;1.60;1.10;;;20.00;46.80;;;;;;5106140;28;20024;-46
2022/01/21 13:54:33;;;;;;;1.58;1.15;;;20.00;46.90;;;;;;5106074;28;20099;-45
2022/01/21 13:57:00;;;;;;;0.95;0.85;;;19.90;46.90;;;;;;5106415;28;20511;-45
2022/01/21 13:59:26;;;;;;;1.27;1.10;;;19.90;46.90;;;;;;5106201;28;20626;-45